Terminal Aerodrome Forecast
Issued by NWS

Home | Current Version | Previous Version | Text Only | Print | Product List | Glossary On
Versions: 1 2 3 4 5 6 7 8 9 10 11 12 13 14 15 16 17 18 19 20 21 22 23 24 25 26 27 28 29 30 31 32 33 34 35 36 37 38 39 40 41 42 43 44 45 46 47 48
000
FTUS44 KHGX 301724
TAFIAH
TAF
KIAH 301724Z 3018/3124 13009KT P6SM SCT040 SCT250
     FM302200 14010KT P6SM SCT050 SCT250
     FM310200 14005KT P6SM SCT250
     FM311000 16002KT P6SM SCT020 SCT150
     FM311500 19006KT P6SM SCT025 SCT150
     FM311700 20006KT P6SM SCT035 BKN150
     FM312000 18008KT P6SM VCTS BKN050CB PROB30 3120/3124 TSRA=

USA.gov is the U.S. government's official web portal to all federal, state and local government web resources and services.